Observation data for Roaring Springs on 06/21/2019      Previous  Date       Current Mesonet Observations  Soil Data  Daily Summary Page  Observations in Plain Language
KRRS 210500Z 18007KT 22/17 A2974 RMK A01 T02240170  RH  075%=      5-min Rain = 0
KRRS 210505Z 18008KT 23/17 A2974 RMK A01 T02270170  RH  074%=      5-min Rain = 0
KRRS 210510Z 19006KT 23/17 A2974 RMK A01 T02250169  RH  074%=      5-min Rain = 0
KRRS 210515Z 21005KT 22/17 A2974 RMK A01 T02170165  RH  076%=      5-min Rain = 0
KRRS 210520Z 19005KT 22/16 A2974 RMK A01 T02150164  RH  076%=      5-min Rain = 0
KRRS 210525Z 19006KT 22/16 A2974 RMK A01 T02150163  RH  076%=      5-min Rain = 0
KRRS 210530Z 20006KT 22/16 A2974 RMK A01 T02150163  RH  076%=      5-min Rain = 0
KRRS 210535Z 19007KT 22/16 A2974 RMK A01 T02170162  RH  075%=      5-min Rain = 0
KRRS 210540Z 18008KT 22/16 A2974 RMK A01 T02190161  RH  073%=      5-min Rain = 0
KRRS 210545Z 18008KT 22/16 A2974 RMK A01 T02210161  RH  072%=      5-min Rain = 0
KRRS 210550Z 18008KT 22/16 A2974 RMK A01 T02230161  RH  071%=      5-min Rain = 0
KRRS 210555Z 17008KT 23/16 A2974 RMK A01 T02270160  RH  069%=      5-min Rain = 0
KRRS 210600Z 18008KT 23/16 A2974 RMK A01 T02310160  RH  068%=      5-min Rain = 0
KRRS 210605Z 18010KT 23/16 A2974 RMK A01 T02330160  RH  067%=      5-min Rain = 0
KRRS 210610Z 19011KT 24/16 A2974 RMK A01 T02400160  RH  064%=      5-min Rain = 0
KRRS 210615Z 19011KT 25/16 A2974 RMK A01 T02450161  RH  062%=      5-min Rain = 0
KRRS 210620Z 19011KT 25/16 A2974 RMK A01 T02480161  RH  061%=      5-min Rain = 0
KRRS 210625Z 20011KT 25/16 A2974 RMK A01 T02490161  RH  061%=      5-min Rain = 0
KRRS 210630Z 20011KT 25/16 A2974 RMK A01 T02490161  RH  061%=      5-min Rain = 0
KRRS 210635Z 20012G17KT 25/16 A2974 RMK A01 T02500162  RH  061%=      5-min Rain = 0
KRRS 210640Z 20012KT 25/16 A2974 RMK A01 T02490162  RH  061%=      5-min Rain = 0
KRRS 210645Z 20012KT 25/16 A2974 RMK A01 T02490163  RH  062%=      5-min Rain = 0
KRRS 210650Z 20012G17KT 25/17 A2974 RMK A01 T02490165  RH  063%=      5-min Rain = 0
KRRS 210655Z 20012KT 25/17 A2974 RMK A01 T02480167  RH  064%=      5-min Rain = 0
KRRS 210700Z 20012KT 25/17 A2974 RMK A01 T02480169  RH  064%=      5-min Rain = 0
KRRS 210705Z 20012KT 25/17 A2974 RMK A01 T02480170  RH  065%=      5-min Rain = 0
KRRS 210710Z 20012KT 25/17 A2974 RMK A01 T02480172  RH  066%=      5-min Rain = 0
KRRS 210715Z 20012KT 25/17 A2974 RMK A01 T02470173  RH  066%=      5-min Rain = 0
KRRS 210720Z 20013KT 25/17 A2974 RMK A01 T02480174  RH  067%=      5-min Rain = 0
KRRS 210725Z 20013KT 25/18 A2973 RMK A01 T02490175  RH  067%=      5-min Rain = 0
KRRS 210730Z 20012KT 25/18 A2973 RMK A01 T02480176  RH  068%=      5-min Rain = 0
KRRS 210735Z 20013KT 25/18 A2973 RMK A01 T02480176  RH  067%=      5-min Rain = 0
KRRS 210740Z 21013KT 25/18 A2973 RMK A01 T02490176  RH  067%=      5-min Rain = 0
KRRS 210745Z 20012KT 25/18 A2973 RMK A01 T02470176  RH  068%=      5-min Rain = 0
KRRS 210750Z 21011G16KT 24/18 A2973 RMK A01 T02440176  RH  069%=      5-min Rain = 0
KRRS 210755Z 20011KT 24/18 A2973 RMK A01 T02420176  RH  070%=      5-min Rain = 0
KRRS 210800Z 20012KT 24/18 A2973 RMK A01 T02430176  RH  070%=      5-min Rain = 0
KRRS 210805Z 20011G16KT 24/18 A2973 RMK A01 T02430176  RH  070%=      5-min Rain = 0
KRRS 210810Z 20013KT 25/18 A2973 RMK A01 T02450176  RH  069%=      5-min Rain = 0
KRRS 210815Z 20012KT 25/18 A2973 RMK A01 T02470176  RH  068%=      5-min Rain = 0
KRRS 210820Z 20014KT 25/18 A2972 RMK A01 T02480176  RH  068%=      5-min Rain = 0
KRRS 210825Z 20014KT 25/18 A2972 RMK A01 T02490176  RH  067%=      5-min Rain = 0
KRRS 210830Z 20013KT 25/18 A2972 RMK A01 T02500176  RH  067%=      5-min Rain = 0
KRRS 210835Z 20012KT 25/18 A2972 RMK A01 T02490176  RH  067%=      5-min Rain = 0
KRRS 210840Z 20012G17KT 25/18 A2972 RMK A01 T02470176  RH  068%=      5-min Rain = 0
KRRS 210845Z 21013KT 25/18 A2972 RMK A01 T02470176  RH  068%=      5-min Rain = 0
KRRS 210850Z 21014G19KT 25/18 A2972 RMK A01 T02480175  RH  067%=      5-min Rain = 0
KRRS 210855Z 21014G20KT 25/18 A2972 RMK A01 T02500175  RH  066%=      5-min Rain = 0
KRRS 210900Z 21014G22KT 25/17 A2972 RMK A01 T02500174  RH  066%=      5-min Rain = 0
KRRS 210905Z 20015G20KT 25/17 A2972 RMK A01 T02510174  RH  065%=      5-min Rain = 0
KRRS 210910Z 21015G20KT 25/17 A2972 RMK A01 T02530173  RH  065%=      5-min Rain = 0
KRRS 210915Z 21014G19KT 25/17 A2972 RMK A01 T02520173  RH  065%=      5-min Rain = 0
KRRS 210920Z 20016G21KT 25/17 A2973 RMK A01 T02530173  RH  064%=      5-min Rain = 0
KRRS 210925Z 21016KT 25/17 A2973 RMK A01 T02530173  RH  064%=      5-min Rain = 0
KRRS 210930Z 20016G21KT 25/17 A2973 RMK A01 T02530173  RH  064%=      5-min Rain = 0
KRRS 210935Z 20015KT 25/17 A2973 RMK A01 T02530173  RH  065%=      5-min Rain = 0
KRRS 210940Z 20014G19KT 25/17 A2973 RMK A01 T02510174  RH  065%=      5-min Rain = 0
KRRS 210945Z 20016G22KT 25/17 A2973 RMK A01 T02510173  RH  065%=      5-min Rain = 0
KRRS 210950Z 20014KT 25/17 A2973 RMK A01 T02500174  RH  066%=      5-min Rain = 0
KRRS 210955Z 20015KT 25/17 A2973 RMK A01 T02490174  RH  066%=      5-min Rain = 0
KRRS 211000Z 20015KT 25/17 A2974 RMK A01 T02490174  RH  066%=      5-min Rain = 0
KRRS 211005Z 20016G21KT 25/17 A2974 RMK A01 T02490174  RH  067%=      5-min Rain = 0
KRRS 211010Z 20016KT 25/17 A2974 RMK A01 T02490174  RH  066%=      5-min Rain = 0
KRRS 211015Z 21017KT 25/18 A2974 RMK A01 T02500175  RH  066%=      5-min Rain = 0
KRRS 211020Z 21016G21KT 25/18 A2974 RMK A01 T02490175  RH  067%=      5-min Rain = 0
KRRS 211025Z 21017G22KT 25/18 A2974 RMK A01 T02490175  RH  067%=      5-min Rain = 0
KRRS 211030Z 21016G22KT 25/18 A2974 RMK A01 T02480176  RH  068%=      5-min Rain = 0
KRRS 211035Z 21016G22KT 25/18 A2974 RMK A01 T02480177  RH  068%=      5-min Rain = 0
KRRS 211040Z 20017G22KT 25/18 A2974 RMK A01 T02480177  RH  068%=      5-min Rain = 0
KRRS 211045Z 20016G21KT 25/18 A2975 RMK A01 T02480178  RH  068%=      5-min Rain = 0
KRRS 211050Z 21018G23KT 25/18 A2975 RMK A01 T02490178  RH  068%=      5-min Rain = 0
KRRS 211055Z 21017G22KT 25/18 A2975 RMK A01 T02490179  RH  069%=      5-min Rain = 0
KRRS 211100Z 20017G23KT 25/18 A2975 RMK A01 T02490180  RH  069%=      5-min Rain = 0
KRRS 211105Z 21017G23KT 25/18 A2976 RMK A01 T02490180  RH  069%=      5-min Rain = 0
KRRS 211110Z 21016KT 25/18 A2976 RMK A01 T02480180  RH  070%=      5-min Rain = 0
KRRS 211115Z 21017G24KT 25/18 A2976 RMK A01 T02480181  RH  070%=      5-min Rain = 0
KRRS 211120Z 21017G22KT 25/18 A2976 RMK A01 T02480182  RH  070%=      5-min Rain = 0
KRRS 211125Z 21015G21KT 25/18 A2977 RMK A01 T02470182  RH  071%=      5-min Rain = 0
KRRS 211130Z 21015KT 25/18 A2977 RMK A01 T02450182  RH  072%=      5-min Rain = 0
KRRS 211135Z 21015G20KT 25/18 A2977 RMK A01 T02450183  RH  072%=      5-min Rain = 0
KRRS 211140Z 21014KT 24/18 A2977 RMK A01 T02440183  RH  073%=      5-min Rain = 0
KRRS 211145Z 22012G18KT 24/18 A2978 RMK A01 T02430184  RH  073%=      5-min Rain = 0
KRRS 211150Z 22012KT 24/18 A2978 RMK A01 T02420184  RH  074%=      5-min Rain = 0
KRRS 211155Z 22013G18KT 24/18 A2978 RMK A01 T02410184  RH  074%=      5-min Rain = 0
KRRS 211200Z 22014KT 24/18 A2978 RMK A01 T02430184  RH  074%=      5-min Rain = 0
KRRS 211205Z 22013G18KT 24/19 A2978 RMK A01 T02420185  RH  074%=      5-min Rain = 0
KRRS 211210Z 22013KT 24/19 A2979 RMK A01 T02420185  RH  075%=      5-min Rain = 0
KRRS 211215Z 22013KT 24/19 A2979 RMK A01 T02420186  RH  075%=      5-min Rain = 0
KRRS 211220Z 22012G17KT 24/19 A2979 RMK A01 T02420186  RH  075%=      5-min Rain = 0
KRRS 211225Z 21013KT 24/19 A2979 RMK A01 T02420187  RH  075%=      5-min Rain = 0
KRRS 211230Z 22012KT 24/19 A2979 RMK A01 T02430187  RH  075%=      5-min Rain = 0
KRRS 211235Z 21013KT 24/19 A2979 RMK A01 T02440188  RH  075%=      5-min Rain = 0
KRRS 211240Z 21013KT 25/19 A2979 RMK A01 T02460189  RH  074%=      5-min Rain = 0
KRRS 211245Z 23012KT 25/19 A298 RMK A01 T02480190  RH  074%=      5-min Rain = 0
KRRS 211250Z 21015KT 25/19 A2979 RMK A01 T02510190  RH  073%=      5-min Rain = 0
KRRS 211255Z 21016G23KT 25/19 A2979 RMK A01 T02530191  RH  072%=      5-min Rain = 0
KRRS 211300Z 22016G23KT 26/19 A2979 RMK A01 T02560191  RH  071%=      5-min Rain = 0
KRRS 211305Z 22015G22KT 26/19 A298 RMK A01 T02580193  RH  071%=      5-min Rain = 0
KRRS 211310Z 22016G22KT 26/19 A298 RMK A01 T02590193  RH  071%=      5-min Rain = 0
KRRS 211315Z 23013G19KT 26/19 A298 RMK A01 T02610194  RH  071%=      5-min Rain = 0
KRRS 211320Z 22016G22KT 26/20 A298 RMK A01 T02620195  RH  070%=      5-min Rain = 0
KRRS 211325Z 22016G21KT 26/20 A298 RMK A01 T02640195  RH  069%=      5-min Rain = 0
KRRS 211330Z 22015G21KT 27/20 A298 RMK A01 T02660196  RH  069%=      5-min Rain = 0
KRRS 211335Z 22015G21KT 27/20 A298 RMK A01 T02680197  RH  069%=      5-min Rain = 0
KRRS 211340Z 22014G19KT 27/20 A2981 RMK A01 T02690199  RH  069%=      5-min Rain = 0
KRRS 211345Z 22016G23KT 27/20 A2981 RMK A01 T02710198  RH  068%=      5-min Rain = 0
KRRS 211350Z 22015G22KT 27/20 A2981 RMK A01 T02730199  RH  068%=      5-min Rain = 0
KRRS 211355Z 22015G20KT 28/20 A2981 RMK A01 T02750200  RH  067%=      5-min Rain = 0
KRRS 211400Z 22013KT 28/20 A2981 RMK A01 T02770202  RH  067%=      5-min Rain = 0
KRRS 211405Z 22014G19KT 28/20 A2981 RMK A01 T02790201  RH  066%=      5-min Rain = 0
KRRS 211410Z 22016KT 28/20 A2981 RMK A01 T02810200  RH  065%=      5-min Rain = 0
KRRS 211415Z 22013G20KT 28/20 A2981 RMK A01 T02830202  RH  065%=      5-min Rain = 0
KRRS 211420Z 22015G21KT 29/20 A2981 RMK A01 T02850201  RH  064%=      5-min Rain = 0
KRRS 211425Z 22017G22KT 29/20 A2981 RMK A01 T02860198  RH  063%=      5-min Rain = 0
KRRS 211430Z 22017G23KT 29/20 A2982 RMK A01 T02870198  RH  062%=      5-min Rain = 0
KRRS 211435Z 23015G23KT 29/20 A2982 RMK A01 T02890200  RH  062%=      5-min Rain = 0
KRRS 211440Z 23014G19KT 29/20 A2982 RMK A01 T02910201  RH  062%=      5-min Rain = 0
KRRS 211445Z 22014G20KT 29/20 A2982 RMK A01 T02930202  RH  062%=      5-min Rain = 0
KRRS 211450Z 22017G23KT 29/20 A2982 RMK A01 T02930198  RH  060%=      5-min Rain = 0
KRRS 211455Z 23014G22KT 30/20 A2982 RMK A01 T02950201  RH  060%=      5-min Rain = 0
KRRS 211500Z 23013G18KT 30/20 A2982 RMK A01 T02970201  RH  060%=      5-min Rain = 0
KRRS 211505Z 22015G22KT 30/20 A2982 RMK A01 T02990200  RH  059%=      5-min Rain = 0
KRRS 211510Z 22014G21KT 30/20 A2982 RMK A01 T02990199  RH  058%=      5-min Rain = 0
KRRS 211515Z 23015G20KT 30/20 A2982 RMK A01 T03010197  RH  057%=      5-min Rain = 0
KRRS 211520Z 23015G23KT 30/20 A2982 RMK A01 T03020196  RH  056%=      5-min Rain = 0
KRRS 211525Z 23015G20KT 30/20 A2982 RMK A01 T03040195  RH  055%=      5-min Rain = 0
KRRS 211530Z 22015G22KT 31/20 A2982 RMK A01 T03050196  RH  055%=      5-min Rain = 0
KRRS 211535Z 23013KT 31/20 A2982 RMK A01 T03070198  RH  056%=      5-min Rain = 0
KRRS 211540Z 23014G21KT 31/19 A2981 RMK A01 T03080194  RH  054%=      5-min Rain = 0
KRRS 211545Z 23016KT 31/19 A2981 RMK A01 T03090191  RH  052%=      5-min Rain = 0
KRRS 211550Z 23015G20KT 31/19 A2981 RMK A01 T03110189  RH  051%=      5-min Rain = 0
KRRS 211555Z 23014G19KT 31/19 A2982 RMK A01 T03130192  RH  051%=      5-min Rain = 0
KRRS 211600Z 24014G19KT 32/19 A2982 RMK A01 T03150188  RH  050%=      5-min Rain = 0
KRRS 211605Z 23012G18KT 32/20 A2982 RMK A01 T03170197  RH  052%=      5-min Rain = 0
KRRS 211610Z 24014G19KT 32/19 A2982 RMK A01 T03200188  RH  048%=      5-min Rain = 0
KRRS 211615Z 23012KT 32/19 A2982 RMK A01 T03200187  RH  048%=      5-min Rain = 0
KRRS 211620Z 23013G19KT 32/18 A2981 RMK A01 T03220181  RH  045%=      5-min Rain = 0
KRRS 211625Z 23014KT 32/18 A2981 RMK A01 T03220179  RH  045%=      5-min Rain = 0
KRRS 211630Z 24013KT 32/18 A2982 RMK A01 T03240179  RH  044%=      5-min Rain = 0
KRRS 211635Z 24012KT 33/17 A2982 RMK A01 T03270172  RH  042%=      5-min Rain = 0
KRRS 211640Z 24013G19KT 33/16 A2982 RMK A01 T03280161  RH  039%=      5-min Rain = 0
KRRS 211645Z 24011KT 33/17 A2982 RMK A01 T03300165  RH  039%=      5-min Rain = 0
KRRS 211650Z 25012KT 33/15 A2982 RMK A01 T03310154  RH  036%=      5-min Rain = 0
KRRS 211655Z 25013G18KT 33/15 A2981 RMK A01 T03320150  RH  035%=      5-min Rain = 0
KRRS 211700Z 24011G16KT 33/15 A2982 RMK A01 T03340151  RH  035%=      5-min Rain = 0
KRRS 211705Z 24012KT 34/15 A2982 RMK A01 T03350151  RH  035%=      5-min Rain = 0
KRRS 211710Z 26010KT 34/15 A2982 RMK A01 T03360152  RH  035%=      5-min Rain = 0
KRRS 211715Z 24010KT 34/15 A2981 RMK A01 T03380146  RH  033%=      5-min Rain = 0
KRRS 211720Z 24008KT 34/15 A2981 RMK A01 T03400153  RH  034%=      5-min Rain = 0
KRRS 211725Z 25009G14KT 34/15 A2981 RMK A01 T03420148  RH  033%=      5-min Rain = 0
KRRS 211730Z 25010G15KT 34/14 A2981 RMK A01 T03420142  RH  032%=      5-min Rain = 0
KRRS 211735Z 23009KT 34/15 A2981 RMK A01 T03410146  RH  032%=      5-min Rain = 0
KRRS 211740Z 23009KT 34/15 A2981 RMK A01 T03430146  RH  032%=      5-min Rain = 0
KRRS 211745Z 23010KT 34/14 A2981 RMK A01 T03430142  RH  031%=      5-min Rain = 0
KRRS 211750Z 22011KT 34/14 A2981 RMK A01 T03430143  RH  031%=      5-min Rain = 0
KRRS 211755Z 22012KT 34/13 A2981 RMK A01 T03430130  RH  029%=      5-min Rain = 0
KRRS 211800Z 22013KT 34/13 A2981 RMK A01 T03440126  RH  028%=      5-min Rain = 0
KRRS 211805Z 23012KT 35/13 A2981 RMK A01 T03450130  RH  029%=      5-min Rain = 0
KRRS 211810Z 24011KT 35/13 A298 RMK A01 T03470128  RH  028%=      5-min Rain = 0
KRRS 211815Z 23011KT 35/13 A298 RMK A01 T03480128  RH  028%=      5-min Rain = 0
KRRS 211820Z 23011KT 35/13 A298 RMK A01 T03500128  RH  027%=      5-min Rain = 0
KRRS 211825Z 23011KT 35/12 A298 RMK A01 T03490121  RH  026%=      5-min Rain = 0
KRRS 211830Z 24009KT 35/12 A298 RMK A01 T03510122  RH  026%=      5-min Rain = 0
KRRS 211835Z 24009KT 35/13 A298 RMK A01 T03540130  RH  027%=      5-min Rain = 0
KRRS 211840Z 23007G13KT 36/14 A298 RMK A01 T03560142  RH  029%=      5-min Rain = 0
KRRS 211845Z 23009KT 36/14 A2979 RMK A01 T03560141  RH  029%=      5-min Rain = 0
KRRS 211850Z 23009KT 36/13 A2979 RMK A01 T03550127  RH  026%=      5-min Rain = 0
KRRS 211855Z 24008G13KT 36/14 A2979 RMK A01 T03560140  RH  029%=      5-min Rain = 0
KRRS 211900Z 23008G14KT 36/14 A2979 RMK A01 T03570139  RH  028%=      5-min Rain = 0
KRRS 211905Z 22009G14KT 36/15 A2979 RMK A01 T03590148  RH  030%=      5-min Rain = 0
KRRS 211910Z 23009KT 36/14 A2979 RMK A01 T03590142  RH  029%=      5-min Rain = 0
KRRS 211915Z 21010G15KT 36/15 A2979 RMK A01 T03580145  RH  029%=      5-min Rain = 0
KRRS 211920Z 20010KT 36/15 A2979 RMK A01 T03590147  RH  030%=      5-min Rain = 0
KRRS 211925Z 22010KT 36/15 A2979 RMK A01 T03580150  RH  030%=      5-min Rain = 0
KRRS 211930Z 20008KT 36/16 A2978 RMK A01 T03590158  RH  032%=      5-min Rain = 0
KRRS 211935Z 18012KT 36/16 A2978 RMK A01 T03590155  RH  031%=      5-min Rain = 0
KRRS 211940Z 20011G16KT 36/15 A2978 RMK A01 T03580149  RH  030%=      5-min Rain = 0
KRRS 211945Z 18013KT 36/14 A2978 RMK A01 T03580138  RH  028%=      5-min Rain = 0
KRRS 211950Z 18013G19KT 36/14 A2978 RMK A01 T03590141  RH  028%=      5-min Rain = 0
KRRS 211955Z 19013KT 36/14 A2978 RMK A01 T03610142  RH  028%=      5-min Rain = 0
KRRS 212000Z 20012G17KT 36/15 A2977 RMK A01 T03610145  RH  029%=      5-min Rain = 0
KRRS 212005Z 19013KT 36/16 A2977 RMK A01 T03610158  RH  032%=      5-min Rain = 0
KRRS 212010Z 18010G15KT 36/17 A2977 RMK A01 T03600165  RH  033%=      5-min Rain = 0
KRRS 212015Z 18012G17KT 36/16 A2977 RMK A01 T03610164  RH  033%=      5-min Rain = 0
KRRS 212020Z 18014G19KT 36/17 A2977 RMK A01 T03600165  RH  033%=      5-min Rain = 0
KRRS 212025Z 19013G18KT 36/16 A2977 RMK A01 T03600160  RH  032%=      5-min Rain = 0
KRRS 212030Z 18012G19KT 36/17 A2977 RMK A01 T03620168  RH  034%=      5-min Rain = 0
KRRS 212035Z 18012G18KT 36/17 A2977 RMK A01 T03610165  RH  033%=      5-min Rain = 0
KRRS 212040Z 19013G18KT 36/16 A2977 RMK A01 T03630164  RH  033%=      5-min Rain = 0
KRRS 212045Z 19012KT 36/16 A2977 RMK A01 T03630161  RH  032%=      5-min Rain = 0
KRRS 212050Z 19013G18KT 36/15 A2976 RMK A01 T03630154  RH  030%=      5-min Rain = 0
KRRS 212055Z 20014G20KT 36/15 A2976 RMK A01 T03640150  RH  029%=      5-min Rain = 0
KRRS 212100Z 19013G19KT 37/15 A2976 RMK A01 T03660150  RH  029%=      5-min Rain = 0
KRRS 212105Z 19016G21KT 37/14 A2976 RMK A01 T03650138  RH  027%=      5-min Rain = 0
KRRS 212110Z 19014G19KT 37/14 A2976 RMK A01 T03660144  RH  028%=      5-min Rain = 0
KRRS 212115Z 19014G19KT 37/14 A2976 RMK A01 T03670142  RH  027%=      5-min Rain = 0
KRRS 212120Z 19012G17KT 37/14 A2975 RMK A01 T03670143  RH  028%=      5-min Rain = 0
KRRS 212125Z 19014G20KT 37/15 A2975 RMK A01 T03680147  RH  028%=      5-min Rain = 0
KRRS 212130Z 18015G21KT 37/14 A2975 RMK A01 T03670139  RH  027%=      5-min Rain = 0
KRRS 212135Z 18014G19KT 37/14 A2975 RMK A01 T03650144  RH  028%=      5-min Rain = 0
KRRS 212140Z 17012G20KT 37/16 A2975 RMK A01 T03660157  RH  030%=      5-min Rain = 0
KRRS 212145Z 17011G16KT 37/16 A2975 RMK A01 T03660157  RH  030%=      5-min Rain = 0
KRRS 212150Z 17012G17KT 37/16 A2975 RMK A01 T03670156  RH  030%=      5-min Rain = 0
KRRS 212155Z 17014G19KT 37/15 A2974 RMK A01 T03680148  RH  028%=      5-min Rain = 0
KRRS 212200Z 17010KT 37/15 A2974 RMK A01 T03650153  RH  030%=      5-min Rain = 0
KRRS 212205Z 17012G18KT 37/15 A2974 RMK A01 T03680147  RH  028%=      5-min Rain = 0
KRRS 212210Z 17012G18KT 37/15 A2974 RMK A01 T03670151  RH  029%=      5-min Rain = 0
KRRS 212215Z 18011G17KT 37/15 A2974 RMK A01 T03680148  RH  028%=      5-min Rain = 0
KRRS 212220Z 19011KT 37/15 A2974 RMK A01 T03690154  RH  029%=      5-min Rain = 0
KRRS 212225Z 19014KT 37/14 A2974 RMK A01 T03680137  RH  026%=      5-min Rain = 0
KRRS 212230Z 19012G18KT 37/14 A2973 RMK A01 T03690142  RH  027%=      5-min Rain = 0
KRRS 212235Z 18011KT 36/14 A2973 RMK A01 T03640144  RH  028%=      5-min Rain = 0
KRRS 212240Z 17012G18KT 37/14 A2973 RMK A01 T03670137  RH  026%=      5-min Rain = 0
KRRS 212245Z 18013KT 37/15 A2973 RMK A01 T03680152  RH  029%=      5-min Rain = 0
KRRS 212250Z 17013G18KT 37/16 A2973 RMK A01 T03660160  RH  031%=      5-min Rain = 0
KRRS 212255Z 17012G18KT 36/16 A2973 RMK A01 T03640158  RH  031%=      5-min Rain = 0
KRRS 212300Z 17010G15KT 37/16 A2972 RMK A01 T03650164  RH  032%=      5-min Rain = 0
KRRS 212305Z 17013G18KT 37/16 A2972 RMK A01 T03660158  RH  031%=      5-min Rain = 0
KRRS 212310Z 17011G17KT 36/16 A2972 RMK A01 T03580155  RH  031%=      5-min Rain = 0
KRRS 212315Z 17012G17KT 36/15 A2972 RMK A01 T03590149  RH  030%=      5-min Rain = 0
KRRS 212320Z 17012G17KT 36/15 A2972 RMK A01 T03590154  RH  031%=      5-min Rain = 0
KRRS 212325Z 17012KT 36/16 A2972 RMK A01 T03550159  RH  033%=      5-min Rain = 0
KRRS 212330Z 17012G18KT 35/16 A2972 RMK A01 T03540161  RH  033%=      5-min Rain = 0
KRRS 212335Z 16011G16KT 35/17 A2972 RMK A01 T03510173  RH  037%=      5-min Rain = 0
KRRS 212340Z 16009KT 35/18 A2972 RMK A01 T03480183  RH  040%=      5-min Rain = 0
KRRS 212345Z 16009G15KT 35/19 A2972 RMK A01 T03530187  RH  040%=      5-min Rain = 0
KRRS 212350Z 17013G18KT 36/19 A2972 RMK A01 T03550186  RH  039%=      5-min Rain = 0
KRRS 212355Z 16013G18KT 35/19 A2972 RMK A01 T03470189  RH  042%=      5-min Rain = 0
KRRS 220000Z 16013G19KT 34/19 A2972 RMK A01 T03420191  RH  044%=      5-min Rain = 0
KRRS 220005Z 16016G23KT 34/19 A2972 RMK A01 T03410186  RH  042%=      5-min Rain = 0
KRRS 220010Z 16015G20KT 34/18 A2972 RMK A01 T03410184  RH  042%=      5-min Rain = 0
KRRS 220015Z 16013G19KT 34/19 A2972 RMK A01 T03400186  RH  042%=      5-min Rain = 0
KRRS 220020Z 16014G19KT 34/19 A2972 RMK A01 T03400188  RH  043%=      5-min Rain = 0
KRRS 220025Z 17014G21KT 34/19 A2973 RMK A01 T03370186  RH  043%=      5-min Rain = 0
KRRS 220030Z 16014G21KT 34/19 A2973 RMK A01 T03350190  RH  045%=      5-min Rain = 0
KRRS 220035Z 16016G26KT 33/20 A2974 RMK A01 T03320198  RH  048%=      5-min Rain = 0
KRRS 220040Z 17017G25KT 33/20 A2974 RMK A01 T03300203  RH  050%=      5-min Rain = 0
KRRS 220045Z 17018G25KT 33/20 A2973 RMK A01 T03260203  RH  051%=      5-min Rain = 0
KRRS 220050Z 16017G23KT 33/20 A2973 RMK A01 T03260195  RH  048%=      5-min Rain = 0
KRRS 220055Z 15017G23KT 33/19 A2972 RMK A01 T03260189  RH  047%=      5-min Rain = 0
KRRS 220100Z 15017G25KT 33/18 A2971 RMK A01 T03250184  RH  046%=      5-min Rain = 0
KRRS 220105Z 15014G23KT 33/16 A2971 RMK A01 T03270158  RH  038%=      5-min Rain = 0
KRRS 220110Z 20011G23KT 33/15 A2971 RMK A01 T03270146  RH  035%=      5-min Rain = 0
KRRS 220115Z 17019G26KT 32/16 A2972 RMK A01 T03170158  RH  040%=      5-min Rain = 0
KRRS 220120Z 15019G27KT 31/16 A2971 RMK A01 T03130160  RH  042%=      5-min Rain = 0
KRRS 220125Z 16015G21KT 31/16 A2971 RMK A01 T03090155  RH  041%=      5-min Rain = 0
KRRS 220130Z 15015KT 31/14 A2972 RMK A01 T03050140  RH  038%=      5-min Rain = 0
KRRS 220135Z 15016G21KT 30/13 A2973 RMK A01 T03040128  RH  035%=      5-min Rain = 0
KRRS 220140Z 16014G22KT 30/13 A2974 RMK A01 T02990129  RH  037%=      5-min Rain = 0
KRRS 220145Z 16013G18KT 29/13 A2974 RMK A01 T02940131  RH  038%=      5-min Rain = 0
KRRS 220150Z 16012G17KT 29/13 A2975 RMK A01 T02910131  RH  039%=      5-min Rain = 0
KRRS 220155Z 15011KT 29/13 A2976 RMK A01 T02900130  RH  039%=      5-min Rain = 0
KRRS 220200Z 16015G22KT 29/13 A2976 RMK A01 T02910128  RH  038%=      5-min Rain = 0
KRRS 220205Z 15014KT 29/12 A2976 RMK A01 T02930124  RH  037%=      5-min Rain = 0
KRRS 220210Z 15011KT 29/13 A2976 RMK A01 T02930126  RH  037%=      5-min Rain = 0
KRRS 220215Z 15010G16KT 29/13 A2977 RMK A01 T02880128  RH  039%=      5-min Rain = 0
KRRS 220220Z 16011G16KT 29/13 A2977 RMK A01 T02870127  RH  039%=      5-min Rain = 0
KRRS 220225Z 17011KT 28/13 A2978 RMK A01 T02830131  RH  041%=      5-min Rain = 0
KRRS 220230Z 17011KT 28/14 A298 RMK A01 T02770136  RH  043%=      5-min Rain = 0
KRRS 220235Z 18016G26KT 28/14 A2981 RMK A01 T02760136  RH  044%=      5-min Rain = 0
KRRS 220240Z 18023G30KT 27/17 A2982 RMK A01 T02700170  RH  057%=      5-min Rain = 0
KRRS 220245Z 18026G36KT 26/19 A2983 RMK A01 T02580190  RH  070%=      5-min Rain = 0
KRRS 220250Z 18024G35KT 25/19 A2983 RMK A01 T02460194  RH  077%=      5-min Rain = 0
KRRS 220255Z 18021G29KT 24/19 A2982 RMK A01 T02360193  RH  081%=      5-min Rain = 0
KRRS 220300Z 18019G26KT 23/19 A298 RMK A01 T02320192  RH  082%=      5-min Rain = 0
KRRS 220305Z 17014G19KT 24/19 A2981 RMK A01 T02360190  RH  080%=      5-min Rain = 0
KRRS 220310Z 16016G21KT 24/18 A2981 RMK A01 T02390183  RH  075%=      5-min Rain = 0
KRRS 220315Z 14014KT 24/18 A2982 RMK A01 T02400179  RH  073%=      5-min Rain = 0
KRRS 220320Z 13014G20KT 24/18 A2982 RMK A01 T02410177  RH  071%=      5-min Rain = 0
KRRS 220325Z 13016KT 24/17 A2982 RMK A01 T02420172  RH  068%=      5-min Rain = 0
KRRS 220330Z 13017G22KT 24/17 A2981 RMK A01 T02400169  RH  068%=      5-min Rain = 0
KRRS 220335Z 14015KT 24/17 A2981 RMK A01 T02390167  RH  067%=      5-min Rain = 0
KRRS 220340Z 15014G19KT 24/17 A2981 RMK A01 T02410166  RH  066%=      5-min Rain = 0
KRRS 220345Z 15013KT 24/17 A2981 RMK A01 T02430169  RH  066%=      5-min Rain = 0
KRRS 220350Z 15011G16KT 25/17 A2981 RMK A01 T02460173  RH  067%=      5-min Rain = 0
KRRS 220355Z 16012G17KT 25/18 A2981 RMK A01 T02470177  RH  068%=      5-min Rain = 0
KRRS 220400Z 16010KT 25/18 A2981 RMK A01 T02500181  RH  069%=      5-min Rain = 0
KRRS 220405Z 15011KT 25/18 A2981 RMK A01 T02530184  RH  069%=      5-min Rain = 0
KRRS 220410Z 15012G17KT 26/19 A2981 RMK A01 T02550186  RH  069%=      5-min Rain = 0
KRRS 220415Z 15012G18KT 26/19 A298 RMK A01 T02550188  RH  070%=      5-min Rain = 0
KRRS 220420Z 16011G17KT 26/19 A298 RMK A01 T02560188  RH  070%=      5-min Rain = 0
KRRS 220425Z 17010KT 25/19 A2981 RMK A01 T02540188  RH  071%=      5-min Rain = 0
KRRS 220430Z 18009KT 25/19 A2981 RMK A01 T02470189  RH  074%=      5-min Rain = 0
KRRS 220435Z 18008KT 24/19 A2981 RMK A01 T02420189  RH  076%=      5-min Rain = 0
KRRS 220440Z 17009KT 24/19 A2981 RMK A01 T02410189  RH  077%=      5-min Rain = 0
KRRS 220445Z 17009G15KT 24/19 A2981 RMK A01 T02430189  RH  076%=      5-min Rain = 0
KRRS 220450Z 17010G16KT 25/19 A2981 RMK A01 T02470190  RH  075%=      5-min Rain = 0
KRRS 220455Z 17010KT 25/19 A2981 RMK A01 T02480191  RH  075%=      5-min Rain = 0

Page generated in 0.0089 seconds.